sensor_id;sensor_type;location;lat;lon;timestamp;P1;durP1;ratioP1;P2;durP2;ratioP2
36243;SDS011;22284;49.956;19.816;2022-11-15T00:00:50;30.93;;;16.30;;
36243;SDS011;22284;49.956;19.816;2022-11-15T00:03:52;36.33;;;18.23;;
36243;SDS011;22284;49.956;19.816;2022-11-15T00:06:53;37.03;;;18.95;;
36243;SDS011;22284;49.956;19.816;2022-11-15T00:09:54;39.23;;;18.77;;
36243;SDS011;22284;49.956;19.816;2022-11-15T00:12:55;34.98;;;18.25;;
36243;SDS011;22284;49.956;19.816;2022-11-15T00:15:59;36.28;;;18.77;;
36243;SDS011;22284;49.956;19.816;2022-11-15T00:19:01;51.10;;;23.80;;
36243;SDS011;22284;49.956;19.816;2022-11-15T00:22:02;47.93;;;22.93;;
36243;SDS011;22284;49.956;19.816;2022-11-15T00:25:04;44.50;;;19.25;;
36243;SDS011;22284;49.956;19.816;2022-11-15T00:28:06;39.18;;;20.72;;
36243;SDS011;22284;49.956;19.816;2022-11-15T00:31:08;39.33;;;19.15;;
36243;SDS011;22284;49.956;19.816;2022-11-15T00:34:12;53.85;;;21.33;;
36243;SDS011;22284;49.956;19.816;2022-11-15T00:37:13;48.42;;;19.67;;
36243;SDS011;22284;49.956;19.816;2022-11-15T00:40:14;40.63;;;14.95;;
36243;SDS011;22284;49.956;19.816;2022-11-15T00:43:15;39.13;;;14.47;;
36243;SDS011;22284;49.956;19.816;2022-11-15T00:46:16;46.45;;;19.37;;
36243;SDS011;22284;49.956;19.816;2022-11-15T00:49:17;42.83;;;19.23;;
36243;SDS011;22284;49.956;19.816;2022-11-15T00:52:18;31.93;;;16.62;;
36243;SDS011;22284;49.956;19.816;2022-11-15T00:55:23;35.00;;;15.27;;
36243;SDS011;22284;49.956;19.816;2022-11-15T00:58:24;36.57;;;15.53;;
36243;SDS011;22284;49.956;19.816;2022-11-15T01:01:24;36.73;;;16.05;;
36243;SDS011;22284;49.956;19.816;2022-11-15T01:04:25;33.92;;;15.98;;
36243;SDS011;22284;49.956;19.816;2022-11-15T01:07:26;33.42;;;16.05;;
36243;SDS011;22284;49.956;19.816;2022-11-15T01:10:27;37.30;;;16.05;;
36243;SDS011;22284;49.956;19.816;2022-11-15T01:13:29;36.23;;;15.60;;
36243;SDS011;22284;49.956;19.816;2022-11-15T01:16:32;31.48;;;14.25;;
36243;SDS011;22284;49.956;19.816;2022-11-15T01:19:33;31.25;;;14.10;;
36243;SDS011;22284;49.956;19.816;2022-11-15T01:22:34;30.92;;;13.85;;
36243;SDS011;22284;49.956;19.816;2022-11-15T01:25:35;27.65;;;13.60;;
36243;SDS011;22284;49.956;19.816;2022-11-15T01:28:36;30.72;;;15.18;;
36243;SDS011;22284;49.956;19.816;2022-11-15T01:31:39;28.73;;;14.23;;
36243;SDS011;22284;49.956;19.816;2022-11-15T01:34:40;30.57;;;13.40;;
36243;SDS011;22284;49.956;19.816;2022-11-15T01:37:42;30.10;;;13.85;;
36243;SDS011;22284;49.956;19.816;2022-11-15T01:40:43;30.40;;;14.10;;
36243;SDS011;22284;49.956;19.816;2022-11-15T01:43:46;34.27;;;14.30;;
36243;SDS011;22284;49.956;19.816;2022-11-15T01:46:49;35.55;;;15.20;;
36243;SDS011;22284;49.956;19.816;2022-11-15T01:52:59;51.95;;;21.23;;
36243;SDS011;22284;49.956;19.816;2022-11-15T01:56:02;49.98;;;20.62;;
36243;SDS011;22284;49.956;19.816;2022-11-15T01:59:06;43.90;;;20.00;;
36243;SDS011;22284;49.956;19.816;2022-11-15T02:02:09;55.55;;;17.05;;
36243;SDS011;22284;49.956;19.816;2022-11-15T02:05:11;45.25;;;14.00;;
36243;SDS011;22284;49.956;19.816;2022-11-15T02:08:12;38.63;;;12.80;;
36243;SDS011;22284;49.956;19.816;2022-11-15T02:11:15;36.65;;;12.80;;
36243;SDS011;22284;49.956;19.816;2022-11-15T02:14:16;27.82;;;12.75;;
36243;SDS011;22284;49.956;19.816;2022-11-15T02:27:42;28.62;;;12.45;;
36243;SDS011;22284;49.956;19.816;2022-11-15T02:37:56;25.95;;;12.73;;
36243;SDS011;22284;49.956;19.816;2022-11-15T02:41:02;32.33;;;13.38;;
36243;SDS011;22284;49.956;19.816;2022-11-15T02:44:09;31.60;;;13.03;;
36243;SDS011;22284;49.956;19.816;2022-11-15T02:47:16;32.70;;;12.23;;
36243;SDS011;22284;49.956;19.816;2022-11-15T02:50:20;29.05;;;11.68;;
36243;SDS011;22284;49.956;19.816;2022-11-15T02:53:25;26.23;;;12.50;;
36243;SDS011;22284;49.956;19.816;2022-11-15T02:56:27;26.65;;;12.18;;
36243;SDS011;22284;49.956;19.816;2022-11-15T02:59:42;31.17;;;12.50;;
36243;SDS011;22284;49.956;19.816;2022-11-15T03:03:00;24.45;;;12.28;;
36243;SDS011;22284;49.956;19.816;2022-11-15T03:06:28;22.17;;;11.45;;
36243;SDS011;22284;49.956;19.816;2022-11-15T03:09:41;23.05;;;11.53;;
36243;SDS011;22284;49.956;19.816;2022-11-15T03:12:55;21.57;;;11.43;;
36243;SDS011;22284;49.956;19.816;2022-11-15T03:19:28;23.35;;;11.75;;
36243;SDS011;22284;49.956;19.816;2022-11-15T03:22:39;23.67;;;12.45;;
36243;SDS011;22284;49.956;19.816;2022-11-15T03:25:45;23.50;;;11.55;;
36243;SDS011;22284;49.956;19.816;2022-11-15T03:29:03;25.27;;;12.30;;
36243;SDS011;22284;49.956;19.816;2022-11-15T03:32:11;27.10;;;12.23;;
36243;SDS011;22284;49.956;19.816;2022-11-15T03:35:23;22.15;;;12.18;;
36243;SDS011;22284;49.956;19.816;2022-11-15T03:38:29;21.90;;;11.67;;
36243;SDS011;22284;49.956;19.816;2022-11-15T03:44:45;24.45;;;11.78;;
36243;SDS011;22284;49.956;19.816;2022-11-15T03:47:52;26.33;;;12.07;;
36243;SDS011;22284;49.956;19.816;2022-11-15T03:51:01;30.55;;;13.32;;
36243;SDS011;22284;49.956;19.816;2022-11-15T03:54:04;25.72;;;12.43;;
36243;SDS011;22284;49.956;19.816;2022-11-15T03:57:06;25.72;;;11.57;;
36243;SDS011;22284;49.956;19.816;2022-11-15T04:00:07;26.37;;;12.03;;
36243;SDS011;22284;49.956;19.816;2022-11-15T04:03:09;22.22;;;10.85;;
36243;SDS011;22284;49.956;19.816;2022-11-15T04:06:10;25.83;;;11.70;;
36243;SDS011;22284;49.956;19.816;2022-11-15T04:09:11;24.30;;;11.43;;
36243;SDS011;22284;49.956;19.816;2022-11-15T04:12:12;25.10;;;11.93;;
36243;SDS011;22284;49.956;19.816;2022-11-15T04:15:20;19.90;;;10.68;;
36243;SDS011;22284;49.956;19.816;2022-11-15T04:18:21;24.07;;;12.10;;
36243;SDS011;22284;49.956;19.816;2022-11-15T04:21:22;23.02;;;12.00;;
36243;SDS011;22284;49.956;19.816;2022-11-15T04:24:42;19.43;;;10.57;;
36243;SDS011;22284;49.956;19.816;2022-11-15T04:27:43;18.70;;;9.40;;
36243;SDS011;22284;49.956;19.816;2022-11-15T04:30:44;17.97;;;9.47;;
36243;SDS011;22284;49.956;19.816;2022-11-15T04:33:45;18.33;;;9.77;;
36243;SDS011;22284;49.956;19.816;2022-11-15T04:36:46;34.07;;;9.90;;
36243;SDS011;22284;49.956;19.816;2022-11-15T04:40:05;26.90;;;10.10;;
36243;SDS011;22284;49.956;19.816;2022-11-15T04:43:08;22.40;;;10.30;;
36243;SDS011;22284;49.956;19.816;2022-11-15T04:46:08;29.07;;;10.50;;
36243;SDS011;22284;49.956;19.816;2022-11-15T04:49:09;21.40;;;9.67;;
36243;SDS011;22284;49.956;19.816;2022-11-15T04:52:10;24.00;;;9.63;;
36243;SDS011;22284;49.956;19.816;2022-11-15T04:55:11;19.37;;;9.53;;
36243;SDS011;22284;49.956;19.816;2022-11-15T04:58:13;21.03;;;10.43;;
36243;SDS011;22284;49.956;19.816;2022-11-15T05:01:14;22.37;;;10.20;;
36243;SDS011;22284;49.956;19.816;2022-11-15T05:04:16;22.60;;;9.70;;
36243;SDS011;22284;49.956;19.816;2022-11-15T05:07:19;24.50;;;9.60;;
36243;SDS011;22284;49.956;19.816;2022-11-15T05:10:20;21.87;;;9.50;;
36243;SDS011;22284;49.956;19.816;2022-11-15T05:13:21;16.70;;;9.10;;
36243;SDS011;22284;49.956;19.816;2022-11-15T05:16:23;20.03;;;8.90;;
36243;SDS011;22284;49.956;19.816;2022-11-15T05:19:23;27.30;;;9.87;;
36243;SDS011;22284;49.956;19.816;2022-11-15T05:22:24;18.13;;;9.33;;
36243;SDS011;22284;49.956;19.816;2022-11-15T05:25:25;29.60;;;8.97;;
36243;SDS011;22284;49.956;19.816;2022-11-15T05:28:27;19.77;;;9.00;;
36243;SDS011;22284;49.956;19.816;2022-11-15T05:31:28;20.63;;;8.33;;
36243;SDS011;22284;49.956;19.816;2022-11-15T05:34:29;21.27;;;8.80;;
36243;SDS011;22284;49.956;19.816;2022-11-15T05:37:30;20.67;;;9.63;;
36243;SDS011;22284;49.956;19.816;2022-11-15T05:40:31;23.37;;;9.37;;
36243;SDS011;22284;49.956;19.816;2022-11-15T05:43:33;17.00;;;8.50;;
36243;SDS011;22284;49.956;19.816;2022-11-15T05:46:36;18.23;;;10.03;;
36243;SDS011;22284;49.956;19.816;2022-11-15T05:49:40;27.00;;;9.10;;
36243;SDS011;22284;49.956;19.816;2022-11-15T05:52:44;18.90;;;8.73;;
36243;SDS011;22284;49.956;19.816;2022-11-15T05:55:46;32.50;;;9.93;;
36243;SDS011;22284;49.956;19.816;2022-11-15T05:58:47;20.67;;;9.00;;
36243;SDS011;22284;49.956;19.816;2022-11-15T06:01:48;20.43;;;8.57;;
36243;SDS011;22284;49.956;19.816;2022-11-15T06:04:49;20.80;;;9.37;;
36243;SDS011;22284;49.956;19.816;2022-11-15T06:07:50;17.73;;;9.30;;
36243;SDS011;22284;49.956;19.816;2022-11-15T06:10:51;22.23;;;10.27;;
36243;SDS011;22284;49.956;19.816;2022-11-15T06:13:52;21.67;;;11.77;;
36243;SDS011;22284;49.956;19.816;2022-11-15T06:16:53;90.80;;;27.17;;
36243;SDS011;22284;49.956;19.816;2022-11-15T06:19:54;169.07;;;38.97;;
36243;SDS011;22284;49.956;19.816;2022-11-15T06:23:03;96.80;;;28.93;;
36243;SDS011;22284;49.956;19.816;2022-11-15T06:26:05;55.07;;;17.77;;
36243;SDS011;22284;49.956;19.816;2022-11-15T06:29:06;29.00;;;12.67;;
36243;SDS011;22284;49.956;19.816;2022-11-15T06:32:07;114.63;;;55.17;;
36243;SDS011;22284;49.956;19.816;2022-11-15T06:35:08;63.13;;;33.93;;
36243;SDS011;22284;49.956;19.816;2022-11-15T06:38:11;33.90;;;20.65;;
36243;SDS011;22284;49.956;19.816;2022-11-15T06:41:12;29.33;;;16.77;;
36243;SDS011;22284;49.956;19.816;2022-11-15T06:44:14;36.23;;;17.90;;
36243;SDS011;22284;49.956;19.816;2022-11-15T06:47:16;26.50;;;13.07;;
36243;SDS011;22284;49.956;19.816;2022-11-15T06:50:17;26.30;;;12.50;;
36243;SDS011;22284;49.956;19.816;2022-11-15T06:53:19;24.60;;;13.30;;
36243;SDS011;22284;49.956;19.816;2022-11-15T06:56:20;24.40;;;13.40;;
36243;SDS011;22284;49.956;19.816;2022-11-15T06:59:21;21.03;;;11.47;;
36243;SDS011;22284;49.956;19.816;2022-11-15T07:02:22;24.73;;;13.57;;
36243;SDS011;22284;49.956;19.816;2022-11-15T07:05:23;22.63;;;12.67;;
36243;SDS011;22284;49.956;19.816;2022-11-15T07:08:26;20.33;;;11.27;;
36243;SDS011;22284;49.956;19.816;2022-11-15T07:11:29;23.87;;;12.30;;
36243;SDS011;22284;49.956;19.816;2022-11-15T07:14:30;24.40;;;11.77;;
36243;SDS011;22284;49.956;19.816;2022-11-15T07:17:31;24.33;;;12.67;;
36243;SDS011;22284;49.956;19.816;2022-11-15T07:20:32;27.80;;;13.43;;
36243;SDS011;22284;49.956;19.816;2022-11-15T07:23:35;24.13;;;12.70;;
36243;SDS011;22284;49.956;19.816;2022-11-15T07:26:38;26.53;;;14.07;;
36243;SDS011;22284;49.956;19.816;2022-11-15T07:29:39;28.80;;;15.07;;
36243;SDS011;22284;49.956;19.816;2022-11-15T07:32:40;27.37;;;15.23;;
36243;SDS011;22284;49.956;19.816;2022-11-15T07:35:41;28.10;;;14.87;;
36243;SDS011;22284;49.956;19.816;2022-11-15T07:38:43;26.80;;;14.17;;
36243;SDS011;22284;49.956;19.816;2022-11-15T07:41:44;31.07;;;14.53;;
36243;SDS011;22284;49.956;19.816;2022-11-15T07:44:46;27.10;;;15.00;;
36243;SDS011;22284;49.956;19.816;2022-11-15T07:47:48;27.93;;;15.13;;
36243;SDS011;22284;49.956;19.816;2022-11-15T07:50:50;26.20;;;14.33;;
36243;SDS011;22284;49.956;19.816;2022-11-15T07:53:51;33.23;;;16.43;;
36243;SDS011;22284;49.956;19.816;2022-11-15T07:56:52;29.80;;;16.07;;
36243;SDS011;22284;49.956;19.816;2022-11-15T07:59:53;32.00;;;15.40;;
36243;SDS011;22284;49.956;19.816;2022-11-15T08:03:00;36.97;;;19.50;;
36243;SDS011;22284;49.956;19.816;2022-11-15T08:06:09;28.43;;;14.97;;
36243;SDS011;22284;49.956;19.816;2022-11-15T08:09:10;26.80;;;13.43;;
36243;SDS011;22284;49.956;19.816;2022-11-15T08:12:11;26.40;;;14.13;;
36243;SDS011;22284;49.956;19.816;2022-11-15T08:15:12;27.93;;;14.10;;
36243;SDS011;22284;49.956;19.816;2022-11-15T08:18:13;28.90;;;13.77;;
36243;SDS011;22284;49.956;19.816;2022-11-15T08:21:18;24.80;;;12.50;;
36243;SDS011;22284;49.956;19.816;2022-11-15T08:24:20;35.17;;;15.70;;
36243;SDS011;22284;49.956;19.816;2022-11-15T08:27:21;51.87;;;20.53;;
36243;SDS011;22284;49.956;19.816;2022-11-15T08:30:22;35.40;;;15.13;;
36243;SDS011;22284;49.956;19.816;2022-11-15T08:33:24;43.93;;;17.77;;
36243;SDS011;22284;49.956;19.816;2022-11-15T08:36:25;41.13;;;17.27;;
36243;SDS011;22284;49.956;19.816;2022-11-15T08:39:26;41.88;;;15.88;;
36243;SDS011;22284;49.956;19.816;2022-11-15T08:42:27;28.77;;;13.85;;
36243;SDS011;22284;49.956;19.816;2022-11-15T08:45:28;30.40;;;13.87;;
36243;SDS011;22284;49.956;19.816;2022-11-15T08:48:31;29.95;;;16.20;;
36243;SDS011;22284;49.956;19.816;2022-11-15T08:51:32;31.67;;;14.23;;
36243;SDS011;22284;49.956;19.816;2022-11-15T08:54:33;25.90;;;14.00;;
36243;SDS011;22284;49.956;19.816;2022-11-15T08:57:34;26.75;;;14.55;;
36243;SDS011;22284;49.956;19.816;2022-11-15T09:00:35;30.92;;;16.57;;
36243;SDS011;22284;49.956;19.816;2022-11-15T09:03:36;29.70;;;14.73;;
36243;SDS011;22284;49.956;19.816;2022-11-15T09:06:39;32.53;;;16.10;;
36243;SDS011;22284;49.956;19.816;2022-11-15T09:09:40;31.47;;;15.50;;
36243;SDS011;22284;49.956;19.816;2022-11-15T09:12:41;34.90;;;17.23;;
36243;SDS011;22284;49.956;19.816;2022-11-15T09:15:42;38.85;;;18.90;;
36243;SDS011;22284;49.956;19.816;2022-11-15T09:18:43;41.25;;;19.62;;
36243;SDS011;22284;49.956;19.816;2022-11-15T09:21:44;41.10;;;19.45;;
36243;SDS011;22284;49.956;19.816;2022-11-15T09:24:45;42.70;;;22.37;;
36243;SDS011;22284;49.956;19.816;2022-11-15T09:27:46;36.55;;;21.60;;
36243;SDS011;22284;49.956;19.816;2022-11-15T09:30:47;41.85;;;22.52;;
36243;SDS011;22284;49.956;19.816;2022-11-15T09:33:47;38.65;;;20.92;;
36243;SDS011;22284;49.956;19.816;2022-11-15T09:36:48;50.87;;;26.10;;
36243;SDS011;22284;49.956;19.816;2022-11-15T09:39:49;64.67;;;29.35;;
36243;SDS011;22284;49.956;19.816;2022-11-15T09:49:55;29.30;;;16.48;;
36243;SDS011;22284;49.956;19.816;2022-11-15T09:53:00;29.12;;;15.75;;
36243;SDS011;22284;49.956;19.816;2022-11-15T09:56:19;31.27;;;16.07;;
36243;SDS011;22284;49.956;19.816;2022-11-15T10:06:24;35.23;;;18.82;;
36243;SDS011;22284;49.956;19.816;2022-11-15T10:09:27;36.45;;;18.85;;
36243;SDS011;22284;49.956;19.816;2022-11-15T10:12:32;33.10;;;19.30;;
36243;SDS011;22284;49.956;19.816;2022-11-15T10:15:33;33.30;;;18.30;;
36243;SDS011;22284;49.956;19.816;2022-11-15T10:18:40;33.10;;;18.42;;
36243;SDS011;22284;49.956;19.816;2022-11-15T10:25:12;34.43;;;19.42;;
36243;SDS011;22284;49.956;19.816;2022-11-15T10:28:17;32.48;;;18.90;;
36243;SDS011;22284;49.956;19.816;2022-11-15T10:31:29;32.08;;;17.57;;
36243;SDS011;22284;49.956;19.816;2022-11-15T10:34:34;29.57;;;16.65;;
36243;SDS011;22284;49.956;19.816;2022-11-15T10:37:36;29.25;;;17.15;;
36243;SDS011;22284;49.956;19.816;2022-11-15T10:40:41;33.35;;;18.05;;
36243;SDS011;22284;49.956;19.816;2022-11-15T10:43:44;31.12;;;18.35;;
36243;SDS011;22284;49.956;19.816;2022-11-15T10:46:47;34.58;;;19.32;;
36243;SDS011;22284;49.956;19.816;2022-11-15T10:49:59;34.23;;;20.08;;
36243;SDS011;22284;49.956;19.816;2022-11-15T10:53:03;39.90;;;21.90;;
36243;SDS011;22284;49.956;19.816;2022-11-15T10:56:13;38.23;;;22.52;;
36243;SDS011;22284;49.956;19.816;2022-11-15T10:59:20;37.70;;;21.97;;
36243;SDS011;22284;49.956;19.816;2022-11-15T11:02:34;36.77;;;22.02;;
36243;SDS011;22284;49.956;19.816;2022-11-15T11:05:40;39.45;;;21.48;;
36243;SDS011;22284;49.956;19.816;2022-11-15T11:09:00;36.00;;;21.33;;
36243;SDS011;22284;49.956;19.816;2022-11-15T11:15:10;35.23;;;20.32;;
36243;SDS011;22284;49.956;19.816;2022-11-15T11:32:10;37.30;;;22.30;;
36243;SDS011;22284;49.956;19.816;2022-11-15T11:35:45;38.02;;;23.05;;
36243;SDS011;22284;49.956;19.816;2022-11-15T11:39:41;41.08;;;22.90;;
36243;SDS011;22284;49.956;19.816;2022-11-15T11:46:56;37.73;;;22.60;;
36243;SDS011;22284;49.956;19.816;2022-11-15T11:50:15;39.67;;;22.82;;
36243;SDS011;22284;49.956;19.816;2022-11-15T11:56:42;41.18;;;22.75;;
36243;SDS011;22284;49.956;19.816;2022-11-15T12:13:16;37.03;;;22.82;;
36243;SDS011;22284;49.956;19.816;2022-11-15T12:16:23;40.50;;;23.83;;
36243;SDS011;22284;49.956;19.816;2022-11-15T12:19:30;41.00;;;23.77;;
36243;SDS011;22284;49.956;19.816;2022-11-15T12:29:03;37.10;;;23.12;;
36243;SDS011;22284;49.956;19.816;2022-11-15T12:32:17;36.60;;;22.13;;
36243;SDS011;22284;49.956;19.816;2022-11-15T12:35:23;36.45;;;23.18;;
36243;SDS011;22284;49.956;19.816;2022-11-15T12:45:25;34.88;;;21.65;;
36243;SDS011;22284;49.956;19.816;2022-11-15T12:55:01;36.28;;;21.60;;
36243;SDS011;22284;49.956;19.816;2022-11-15T13:05:26;33.90;;;20.65;;
36243;SDS011;22284;49.956;19.816;2022-11-15T13:08:43;35.50;;;21.82;;
36243;SDS011;22284;49.956;19.816;2022-11-15T13:11:48;34.88;;;20.77;;
36243;SDS011;22284;49.956;19.816;2022-11-15T13:14:55;34.70;;;21.15;;
36243;SDS011;22284;49.956;19.816;2022-11-15T13:17:57;38.13;;;22.82;;
36243;SDS011;22284;49.956;19.816;2022-11-15T13:20:58;37.60;;;21.40;;
36243;SDS011;22284;49.956;19.816;2022-11-15T13:24:00;37.00;;;22.87;;
36243;SDS011;22284;49.956;19.816;2022-11-15T13:27:01;34.15;;;21.17;;
36243;SDS011;22284;49.956;19.816;2022-11-15T13:30:03;35.10;;;21.23;;
36243;SDS011;22284;49.956;19.816;2022-11-15T13:33:09;37.20;;;20.60;;
36243;SDS011;22284;49.956;19.816;2022-11-15T13:36:20;34.83;;;20.88;;
36243;SDS011;22284;49.956;19.816;2022-11-15T13:39:29;36.42;;;21.95;;
36243;SDS011;22284;49.956;19.816;2022-11-15T13:42:34;34.85;;;21.70;;
36243;SDS011;22284;49.956;19.816;2022-11-15T13:45:35;37.48;;;22.52;;
36243;SDS011;22284;49.956;19.816;2022-11-15T13:48:36;36.90;;;22.70;;
36243;SDS011;22284;49.956;19.816;2022-11-15T13:51:48;38.23;;;22.95;;
36243;SDS011;22284;49.956;19.816;2022-11-15T13:54:57;38.63;;;23.77;;
36243;SDS011;22284;49.956;19.816;2022-11-15T13:58:03;37.60;;;23.18;;
36243;SDS011;22284;49.956;19.816;2022-11-15T14:01:06;34.75;;;22.17;;
36243;SDS011;22284;49.956;19.816;2022-11-15T14:04:11;37.55;;;23.55;;
36243;SDS011;22284;49.956;19.816;2022-11-15T14:07:20;40.63;;;23.83;;
36243;SDS011;22284;49.956;19.816;2022-11-15T14:13:32;41.48;;;26.20;;
36243;SDS011;22284;49.956;19.816;2022-11-15T14:16:34;37.20;;;24.30;;
36243;SDS011;22284;49.956;19.816;2022-11-15T14:19:39;37.95;;;22.85;;
36243;SDS011;22284;49.956;19.816;2022-11-15T14:22:50;40.95;;;23.55;;
36243;SDS011;22284;49.956;19.816;2022-11-15T14:25:58;36.25;;;22.25;;
36243;SDS011;22284;49.956;19.816;2022-11-15T14:32:39;34.92;;;21.50;;
36243;SDS011;22284;49.956;19.816;2022-11-15T14:35:31;38.53;;;22.15;;
36243;SDS011;22284;49.956;19.816;2022-11-15T14:38:32;36.10;;;21.70;;
36243;SDS011;22284;49.956;19.816;2022-11-15T14:41:35;40.35;;;22.73;;
36243;SDS011;22284;49.956;19.816;2022-11-15T14:44:39;36.17;;;22.30;;
36243;SDS011;22284;49.956;19.816;2022-11-15T14:47:41;37.10;;;22.40;;
36243;SDS011;22284;49.956;19.816;2022-11-15T14:50:43;50.00;;;30.12;;
36243;SDS011;22284;49.956;19.816;2022-11-15T14:53:45;49.35;;;31.10;;
36243;SDS011;22284;49.956;19.816;2022-11-15T14:56:47;50.58;;;30.10;;
36243;SDS011;22284;49.956;19.816;2022-11-15T14:59:48;44.27;;;26.12;;
36243;SDS011;22284;49.956;19.816;2022-11-15T15:02:50;47.03;;;26.73;;
36243;SDS011;22284;49.956;19.816;2022-11-15T15:05:54;47.70;;;30.02;;
36243;SDS011;22284;49.956;19.816;2022-11-15T15:08:56;54.55;;;37.63;;
36243;SDS011;22284;49.956;19.816;2022-11-15T15:11:57;57.83;;;39.48;;
36243;SDS011;22284;49.956;19.816;2022-11-15T15:14:58;62.93;;;38.35;;
36243;SDS011;22284;49.956;19.816;2022-11-15T15:17:59;73.80;;;39.13;;
36243;SDS011;22284;49.956;19.816;2022-11-15T15:21:00;75.60;;;37.88;;
36243;SDS011;22284;49.956;19.816;2022-11-15T15:24:03;77.40;;;36.93;;
36243;SDS011;22284;49.956;19.816;2022-11-15T15:27:04;75.72;;;35.43;;
36243;SDS011;22284;49.956;19.816;2022-11-15T15:30:05;72.03;;;34.98;;
36243;SDS011;22284;49.956;19.816;2022-11-15T15:33:08;65.25;;;33.63;;
36243;SDS011;22284;49.956;19.816;2022-11-15T15:36:10;59.70;;;31.23;;
36243;SDS011;22284;49.956;19.816;2022-11-15T15:39:13;58.35;;;31.05;;
36243;SDS011;22284;49.956;19.816;2022-11-15T15:42:14;45.65;;;28.07;;
36243;SDS011;22284;49.956;19.816;2022-11-15T15:45:15;45.90;;;26.65;;
36243;SDS011;22284;49.956;19.816;2022-11-15T15:48:18;50.03;;;29.90;;
36243;SDS011;22284;49.956;19.816;2022-11-15T15:51:19;56.05;;;31.07;;
36243;SDS011;22284;49.956;19.816;2022-11-15T15:54:20;53.15;;;31.60;;
36243;SDS011;22284;49.956;19.816;2022-11-15T15:57:21;62.70;;;35.17;;
36243;SDS011;22284;49.956;19.816;2022-11-15T16:00:22;64.90;;;36.90;;
36243;SDS011;22284;49.956;19.816;2022-11-15T16:03:25;51.92;;;31.20;;
36243;SDS011;22284;49.956;19.816;2022-11-15T16:06:32;50.97;;;30.23;;
36243;SDS011;22284;49.956;19.816;2022-11-15T16:09:36;63.98;;;37.05;;
36243;SDS011;22284;49.956;19.816;2022-11-15T16:12:56;70.85;;;39.48;;
36243;SDS011;22284;49.956;19.816;2022-11-15T16:15:58;75.72;;;41.90;;
36243;SDS011;22284;49.956;19.816;2022-11-15T16:19:00;71.92;;;43.08;;
36243;SDS011;22284;49.956;19.816;2022-11-15T16:22:01;71.70;;;41.98;;
36243;SDS011;22284;49.956;19.816;2022-11-15T16:25:02;66.67;;;41.18;;
36243;SDS011;22284;49.956;19.816;2022-11-15T16:28:04;65.25;;;39.03;;
36243;SDS011;22284;49.956;19.816;2022-11-15T16:31:05;61.80;;;38.08;;
36243;SDS011;22284;49.956;19.816;2022-11-15T16:34:12;56.70;;;37.17;;
36243;SDS011;22284;49.956;19.816;2022-11-15T16:37:21;57.40;;;34.55;;
36243;SDS011;22284;49.956;19.816;2022-11-15T16:40:28;56.98;;;33.35;;
36243;SDS011;22284;49.956;19.816;2022-11-15T16:43:32;55.48;;;33.40;;
36243;SDS011;22284;49.956;19.816;2022-11-15T16:46:33;51.92;;;32.15;;
36243;SDS011;22284;49.956;19.816;2022-11-15T16:49:34;52.20;;;32.17;;
36243;SDS011;22284;49.956;19.816;2022-11-15T16:52:35;50.67;;;30.25;;
36243;SDS011;22284;49.956;19.816;2022-11-15T16:55:36;52.13;;;31.37;;
36243;SDS011;22284;49.956;19.816;2022-11-15T16:58:37;54.40;;;31.55;;
36243;SDS011;22284;49.956;19.816;2022-11-15T17:01:38;52.98;;;32.13;;
36243;SDS011;22284;49.956;19.816;2022-11-15T17:04:43;56.30;;;32.93;;
36243;SDS011;22284;49.956;19.816;2022-11-15T17:07:46;54.77;;;33.33;;
36243;SDS011;22284;49.956;19.816;2022-11-15T17:10:49;61.37;;;35.80;;
36243;SDS011;22284;49.956;19.816;2022-11-15T17:13:55;56.70;;;35.68;;
36243;SDS011;22284;49.956;19.816;2022-11-15T17:16:59;61.50;;;35.73;;
36243;SDS011;22284;49.956;19.816;2022-11-15T17:20:00;53.38;;;32.25;;
36243;SDS011;22284;49.956;19.816;2022-11-15T17:23:03;56.08;;;35.17;;
36243;SDS011;22284;49.956;19.816;2022-11-15T17:26:04;69.30;;;40.43;;
36243;SDS011;22284;49.956;19.816;2022-11-15T17:29:05;74.30;;;41.80;;
36243;SDS011;22284;49.956;19.816;2022-11-15T17:32:07;74.67;;;43.38;;
36243;SDS011;22284;49.956;19.816;2022-11-15T17:35:09;75.40;;;42.55;;
36243;SDS011;22284;49.956;19.816;2022-11-15T17:38:12;80.65;;;43.68;;
36243;SDS011;22284;49.956;19.816;2022-11-15T17:41:14;75.42;;;44.10;;
36243;SDS011;22284;49.956;19.816;2022-11-15T17:44:16;75.42;;;45.65;;
36243;SDS011;22284;49.956;19.816;2022-11-15T17:47:17;72.70;;;44.85;;
36243;SDS011;22284;49.956;19.816;2022-11-15T17:50:18;80.53;;;47.85;;
36243;SDS011;22284;49.956;19.816;2022-11-15T17:53:19;84.80;;;50.95;;
36243;SDS011;22284;49.956;19.816;2022-11-15T17:56:21;94.37;;;54.53;;
36243;SDS011;22284;49.956;19.816;2022-11-15T17:59:24;84.75;;;52.03;;
36243;SDS011;22284;49.956;19.816;2022-11-15T18:02:25;89.40;;;50.83;;
36243;SDS011;22284;49.956;19.816;2022-11-15T18:05:26;88.67;;;54.98;;
36243;SDS011;22284;49.956;19.816;2022-11-15T18:08:27;95.15;;;57.90;;
36243;SDS011;22284;49.956;19.816;2022-11-15T18:11:29;95.42;;;58.92;;
36243;SDS011;22284;49.956;19.816;2022-11-15T18:14:33;103.07;;;61.42;;
36243;SDS011;22284;49.956;19.816;2022-11-15T18:17:34;98.97;;;60.33;;
36243;SDS011;22284;49.956;19.816;2022-11-15T18:20:36;95.70;;;56.60;;
36243;SDS011;22284;49.956;19.816;2022-11-15T18:23:37;96.80;;;58.58;;
36243;SDS011;22284;49.956;19.816;2022-11-15T18:26:38;95.32;;;56.55;;
36243;SDS011;22284;49.956;19.816;2022-11-15T18:29:39;95.62;;;53.38;;
36243;SDS011;22284;49.956;19.816;2022-11-15T18:32:40;91.70;;;54.67;;
36243;SDS011;22284;49.956;19.816;2022-11-15T18:35:42;97.33;;;55.85;;
36243;SDS011;22284;49.956;19.816;2022-11-15T18:38:43;100.95;;;59.18;;
36243;SDS011;22284;49.956;19.816;2022-11-15T18:41:44;101.70;;;61.92;;
36243;SDS011;22284;49.956;19.816;2022-11-15T18:44:48;103.83;;;60.78;;
36243;SDS011;22284;49.956;19.816;2022-11-15T18:47:49;101.20;;;60.05;;
36243;SDS011;22284;49.956;19.816;2022-11-15T18:50:50;88.12;;;54.55;;
36243;SDS011;22284;49.956;19.816;2022-11-15T18:53:51;91.05;;;54.20;;
36243;SDS011;22284;49.956;19.816;2022-11-15T18:56:54;84.20;;;49.75;;
36243;SDS011;22284;49.956;19.816;2022-11-15T18:59:55;80.25;;;47.88;;
36243;SDS011;22284;49.956;19.816;2022-11-15T19:02:56;78.35;;;48.15;;
36243;SDS011;22284;49.956;19.816;2022-11-15T19:06:01;80.10;;;48.40;;
36243;SDS011;22284;49.956;19.816;2022-11-15T19:09:17;83.60;;;48.92;;
36243;SDS011;22284;49.956;19.816;2022-11-15T19:12:19;87.17;;;51.80;;
36243;SDS011;22284;49.956;19.816;2022-11-15T19:15:20;91.15;;;52.60;;
36243;SDS011;22284;49.956;19.816;2022-11-15T19:18:21;96.17;;;55.55;;
36243;SDS011;22284;49.956;19.816;2022-11-15T19:21:22;90.77;;;54.20;;
36243;SDS011;22284;49.956;19.816;2022-11-15T19:24:24;92.78;;;55.92;;
36243;SDS011;22284;49.956;19.816;2022-11-15T19:27:26;86.97;;;51.70;;
36243;SDS011;22284;49.956;19.816;2022-11-15T19:30:27;88.03;;;53.00;;
36243;SDS011;22284;49.956;19.816;2022-11-15T19:33:28;87.72;;;52.40;;